Bonner, Montana
Current Conditions -  °F | °C
As of 3:53 PM on Wednesday 17 Dec 2014 (Local Time) from KMSO Reporting Station
Clear Clear  
Wind Chill: 30°   Ceiling: Unl
Heat Index: 34°   Visibility: 10mi
Dew Point: 24°   Wind: 5mph
Humidity: 67%   Direction: 310°NW
Pressure: 29.93"   Gusts: NA
Location:  46.87°N, 113.86°W
Report Text: KMSO 172253Z 31004KT 10SM CLR 01/M04 A2993 RMK AO2 SLP164 T00111044
Loading
Personal Weather Stations






























Interactive Weather Map New forecast layout! Learn more

10-Day Weather Forecast

Advertisements
Track Severe Weather on mobile